sensor_id;sensor_type;location;lat;lon;timestamp;P1;durP1;ratioP1;P2;durP2;ratioP2
76752;SDS011;65687;51.308;16.916;2024-03-17T00:02:24;3.70;;;2.10;;
76752;SDS011;65687;51.308;16.916;2024-03-17T00:07:26;6.30;;;2.70;;
76752;SDS011;65687;51.308;16.916;2024-03-17T00:12:28;8.00;;;2.40;;
76752;SDS011;65687;51.308;16.916;2024-03-17T00:17:30;4.80;;;2.20;;
76752;SDS011;65687;51.308;16.916;2024-03-17T00:22:31;5.20;;;2.30;;
76752;SDS011;65687;51.308;16.916;2024-03-17T00:27:36;7.20;;;2.70;;
76752;SDS011;65687;51.308;16.916;2024-03-17T00:32:41;4.30;;;2.30;;
76752;SDS011;65687;51.308;16.916;2024-03-17T00:37:43;6.90;;;3.00;;
76752;SDS011;65687;51.308;16.916;2024-03-17T00:42:45;7.60;;;3.60;;
76752;SDS011;65687;51.308;16.916;2024-03-17T00:47:47;5.70;;;2.70;;
76752;SDS011;65687;51.308;16.916;2024-03-17T00:52:48;6.20;;;3.10;;
76752;SDS011;65687;51.308;16.916;2024-03-17T00:57:50;5.10;;;2.40;;
76752;SDS011;65687;51.308;16.916;2024-03-17T01:02:51;6.20;;;2.60;;
76752;SDS011;65687;51.308;16.916;2024-03-17T01:07:53;4.80;;;2.50;;
76752;SDS011;65687;51.308;16.916;2024-03-17T01:12:57;4.20;;;2.20;;
76752;SDS011;65687;51.308;16.916;2024-03-17T01:17:59;3.90;;;2.40;;
76752;SDS011;65687;51.308;16.916;2024-03-17T01:23:01;7.00;;;2.90;;
76752;SDS011;65687;51.308;16.916;2024-03-17T01:28:03;3.10;;;2.20;;
76752;SDS011;65687;51.308;16.916;2024-03-17T01:33:05;5.40;;;2.50;;
76752;SDS011;65687;51.308;16.916;2024-03-17T01:38:07;5.50;;;2.50;;
76752;SDS011;65687;51.308;16.916;2024-03-17T01:43:09;6.10;;;2.70;;
76752;SDS011;65687;51.308;16.916;2024-03-17T01:48:13;4.90;;;2.20;;
76752;SDS011;65687;51.308;16.916;2024-03-17T01:53:17;4.90;;;2.50;;
76752;SDS011;65687;51.308;16.916;2024-03-17T01:58:19;4.00;;;2.20;;
76752;SDS011;65687;51.308;16.916;2024-03-17T02:03:21;3.80;;;2.30;;
76752;SDS011;65687;51.308;16.916;2024-03-17T02:08:23;6.90;;;2.40;;
76752;SDS011;65687;51.308;16.916;2024-03-17T02:18:27;4.50;;;2.40;;
76752;SDS011;65687;51.308;16.916;2024-03-17T02:23:28;4.40;;;2.60;;
76752;SDS011;65687;51.308;16.916;2024-03-17T02:28:37;7.80;;;2.10;;
76752;SDS011;65687;51.308;16.916;2024-03-17T02:33:43;3.20;;;1.90;;
76752;SDS011;65687;51.308;16.916;2024-03-17T02:38:46;5.70;;;2.30;;
76752;SDS011;65687;51.308;16.916;2024-03-17T02:44:06;5.60;;;2.60;;
76752;SDS011;65687;51.308;16.916;2024-03-17T02:49:07;3.70;;;1.80;;
76752;SDS011;65687;51.308;16.916;2024-03-17T02:54:15;3.60;;;2.30;;
76752;SDS011;65687;51.308;16.916;2024-03-17T02:59:16;6.70;;;2.50;;
76752;SDS011;65687;51.308;16.916;2024-03-17T03:04:18;6.20;;;2.40;;
76752;SDS011;65687;51.308;16.916;2024-03-17T03:09:20;3.70;;;2.30;;
76752;SDS011;65687;51.308;16.916;2024-03-17T03:14:26;4.90;;;2.50;;
76752;SDS011;65687;51.308;16.916;2024-03-17T03:19:28;4.70;;;2.20;;
76752;SDS011;65687;51.308;16.916;2024-03-17T03:24:29;4.20;;;2.30;;
76752;SDS011;65687;51.308;16.916;2024-03-17T03:29:31;4.50;;;2.30;;
76752;SDS011;65687;51.308;16.916;2024-03-17T03:34:32;7.00;;;2.20;;
76752;SDS011;65687;51.308;16.916;2024-03-17T03:39:34;5.60;;;2.70;;
76752;SDS011;65687;51.308;16.916;2024-03-17T03:44:37;4.70;;;2.40;;
76752;SDS011;65687;51.308;16.916;2024-03-17T03:49:39;6.50;;;2.10;;
76752;SDS011;65687;51.308;16.916;2024-03-17T03:54:40;6.20;;;2.40;;
76752;SDS011;65687;51.308;16.916;2024-03-17T03:59:42;4.40;;;2.60;;
76752;SDS011;65687;51.308;16.916;2024-03-17T04:04:43;4.10;;;1.80;;
76752;SDS011;65687;51.308;16.916;2024-03-17T04:09:45;4.90;;;2.30;;
76752;SDS011;65687;51.308;16.916;2024-03-17T04:14:46;4.00;;;2.20;;
76752;SDS011;65687;51.308;16.916;2024-03-17T04:19:53;4.10;;;1.90;;
76752;SDS011;65687;51.308;16.916;2024-03-17T04:24:56;3.50;;;1.80;;
76752;SDS011;65687;51.308;16.916;2024-03-17T04:29:58;5.00;;;2.20;;
76752;SDS011;65687;51.308;16.916;2024-03-17T04:35:00;5.30;;;2.00;;
76752;SDS011;65687;51.308;16.916;2024-03-17T04:40:03;5.90;;;2.80;;
76752;SDS011;65687;51.308;16.916;2024-03-17T04:45:06;8.50;;;2.80;;
76752;SDS011;65687;51.308;16.916;2024-03-17T04:50:10;6.30;;;2.30;;
76752;SDS011;65687;51.308;16.916;2024-03-17T04:55:13;5.00;;;2.20;;
76752;SDS011;65687;51.308;16.916;2024-03-17T05:00:15;3.50;;;1.90;;
76752;SDS011;65687;51.308;16.916;2024-03-17T05:05:19;3.70;;;1.90;;
76752;SDS011;65687;51.308;16.916;2024-03-17T05:10:20;6.00;;;2.40;;
76752;SDS011;65687;51.308;16.916;2024-03-17T05:15:22;4.40;;;2.00;;
76752;SDS011;65687;51.308;16.916;2024-03-17T05:20:23;6.40;;;2.40;;
76752;SDS011;65687;51.308;16.916;2024-03-17T05:25:25;7.30;;;2.40;;
76752;SDS011;65687;51.308;16.916;2024-03-17T05:30:27;7.90;;;2.20;;
76752;SDS011;65687;51.308;16.916;2024-03-17T05:35:28;3.80;;;2.00;;
76752;SDS011;65687;51.308;16.916;2024-03-17T05:40:29;4.60;;;2.00;;
76752;SDS011;65687;51.308;16.916;2024-03-17T05:45:32;5.40;;;2.40;;
76752;SDS011;65687;51.308;16.916;2024-03-17T05:50:34;3.90;;;1.90;;
76752;SDS011;65687;51.308;16.916;2024-03-17T05:55:36;2.70;;;1.70;;
76752;SDS011;65687;51.308;16.916;2024-03-17T06:00:38;4.30;;;2.00;;
76752;SDS011;65687;51.308;16.916;2024-03-17T06:05:40;4.10;;;2.30;;
76752;SDS011;65687;51.308;16.916;2024-03-17T06:10:46;3.60;;;1.60;;
76752;SDS011;65687;51.308;16.916;2024-03-17T06:15:49;2.80;;;1.60;;
76752;SDS011;65687;51.308;16.916;2024-03-17T06:20:50;4.70;;;1.70;;
76752;SDS011;65687;51.308;16.916;2024-03-17T06:25:51;6.20;;;1.90;;
76752;SDS011;65687;51.308;16.916;2024-03-17T06:30:57;6.90;;;2.40;;
76752;SDS011;65687;51.308;16.916;2024-03-17T06:36:05;10.50;;;2.70;;
76752;SDS011;65687;51.308;16.916;2024-03-17T06:41:07;7.40;;;2.10;;
76752;SDS011;65687;51.308;16.916;2024-03-17T06:46:10;8.40;;;2.30;;
76752;SDS011;65687;51.308;16.916;2024-03-17T06:51:12;4.60;;;1.80;;
76752;SDS011;65687;51.308;16.916;2024-03-17T06:56:13;11.20;;;2.90;;
76752;SDS011;65687;51.308;16.916;2024-03-17T07:01:15;7.30;;;2.70;;
76752;SDS011;65687;51.308;16.916;2024-03-17T07:06:16;5.50;;;2.40;;
76752;SDS011;65687;51.308;16.916;2024-03-17T07:11:17;6.80;;;2.60;;
76752;SDS011;65687;51.308;16.916;2024-03-17T07:16:19;7.50;;;2.10;;
76752;SDS011;65687;51.308;16.916;2024-03-17T07:21:23;5.90;;;2.20;;
76752;SDS011;65687;51.308;16.916;2024-03-17T07:26:24;6.80;;;1.80;;
76752;SDS011;65687;51.308;16.916;2024-03-17T07:31:26;9.90;;;2.30;;
76752;SDS011;65687;51.308;16.916;2024-03-17T07:36:27;9.40;;;2.40;;
76752;SDS011;65687;51.308;16.916;2024-03-17T07:41:29;7.90;;;2.20;;
76752;SDS011;65687;51.308;16.916;2024-03-17T07:46:30;5.10;;;2.70;;
76752;SDS011;65687;51.308;16.916;2024-03-17T07:51:32;5.70;;;2.40;;
76752;SDS011;65687;51.308;16.916;2024-03-17T07:56:35;6.60;;;2.10;;
76752;SDS011;65687;51.308;16.916;2024-03-17T08:01:37;6.60;;;2.30;;
76752;SDS011;65687;51.308;16.916;2024-03-17T08:06:39;7.90;;;1.70;;
76752;SDS011;65687;51.308;16.916;2024-03-17T08:11:42;5.70;;;1.90;;
76752;SDS011;65687;51.308;16.916;2024-03-17T08:16:47;3.50;;;1.60;;
76752;SDS011;65687;51.308;16.916;2024-03-17T08:21:49;4.90;;;2.10;;
76752;SDS011;65687;51.308;16.916;2024-03-17T08:26:50;6.00;;;1.90;;
76752;SDS011;65687;51.308;16.916;2024-03-17T08:31:52;8.50;;;2.80;;
76752;SDS011;65687;51.308;16.916;2024-03-17T08:36:53;5.80;;;2.60;;
76752;SDS011;65687;51.308;16.916;2024-03-17T08:41:54;6.80;;;2.50;;
76752;SDS011;65687;51.308;16.916;2024-03-17T08:46:56;5.50;;;1.60;;
76752;SDS011;65687;51.308;16.916;2024-03-17T08:51:58;4.30;;;2.00;;
76752;SDS011;65687;51.308;16.916;2024-03-17T08:56:59;5.40;;;1.90;;
76752;SDS011;65687;51.308;16.916;2024-03-17T09:02:01;4.70;;;2.00;;
76752;SDS011;65687;51.308;16.916;2024-03-17T09:07:03;5.20;;;2.00;;
76752;SDS011;65687;51.308;16.916;2024-03-17T09:12:05;3.80;;;1.90;;
76752;SDS011;65687;51.308;16.916;2024-03-17T09:17:06;4.80;;;1.80;;
76752;SDS011;65687;51.308;16.916;2024-03-17T09:22:08;4.50;;;1.30;;
76752;SDS011;65687;51.308;16.916;2024-03-17T09:27:10;5.60;;;1.70;;
76752;SDS011;65687;51.308;16.916;2024-03-17T09:32:11;4.70;;;1.70;;
76752;SDS011;65687;51.308;16.916;2024-03-17T09:37:18;8.70;;;2.60;;
76752;SDS011;65687;51.308;16.916;2024-03-17T09:42:20;7.70;;;2.60;;
76752;SDS011;65687;51.308;16.916;2024-03-17T09:47:22;6.60;;;2.30;;
76752;SDS011;65687;51.308;16.916;2024-03-17T09:52:25;3.30;;;1.80;;
76752;SDS011;65687;51.308;16.916;2024-03-17T09:57:27;4.60;;;1.80;;
76752;SDS011;65687;51.308;16.916;2024-03-17T10:02:31;3.90;;;2.00;;
76752;SDS011;65687;51.308;16.916;2024-03-17T10:07:39;4.80;;;1.50;;
76752;SDS011;65687;51.308;16.916;2024-03-17T10:12:40;7.70;;;2.60;;
76752;SDS011;65687;51.308;16.916;2024-03-17T10:17:42;9.30;;;2.30;;
76752;SDS011;65687;51.308;16.916;2024-03-17T10:23:03;6.70;;;2.10;;
76752;SDS011;65687;51.308;16.916;2024-03-17T10:28:12;6.20;;;1.80;;
76752;SDS011;65687;51.308;16.916;2024-03-17T10:33:22;7.20;;;1.70;;
76752;SDS011;65687;51.308;16.916;2024-03-17T10:38:26;2.50;;;1.40;;
76752;SDS011;65687;51.308;16.916;2024-03-17T10:43:29;4.50;;;1.40;;
76752;SDS011;65687;51.308;16.916;2024-03-17T10:48:32;6.30;;;2.40;;
76752;SDS011;65687;51.308;16.916;2024-03-17T10:53:36;8.30;;;2.50;;
76752;SDS011;65687;51.308;16.916;2024-03-17T10:58:42;4.10;;;2.10;;
76752;SDS011;65687;51.308;16.916;2024-03-17T11:03:51;5.20;;;1.50;;
76752;SDS011;65687;51.308;16.916;2024-03-17T11:08:53;7.20;;;2.00;;
76752;SDS011;65687;51.308;16.916;2024-03-17T11:14:07;6.40;;;2.00;;
76752;SDS011;65687;51.308;16.916;2024-03-17T11:19:18;4.20;;;2.00;;
76752;SDS011;65687;51.308;16.916;2024-03-17T11:24:20;4.90;;;1.80;;
76752;SDS011;65687;51.308;16.916;2024-03-17T11:29:28;11.10;;;1.90;;
76752;SDS011;65687;51.308;16.916;2024-03-17T11:34:37;7.30;;;2.30;;
76752;SDS011;65687;51.308;16.916;2024-03-17T11:39:53;3.60;;;1.50;;
76752;SDS011;65687;51.308;16.916;2024-03-17T11:45:00;7.10;;;2.60;;
76752;SDS011;65687;51.308;16.916;2024-03-17T11:50:04;3.90;;;1.60;;
76752;SDS011;65687;51.308;16.916;2024-03-17T11:55:17;4.80;;;2.20;;
76752;SDS011;65687;51.308;16.916;2024-03-17T12:00:20;6.90;;;2.40;;
76752;SDS011;65687;51.308;16.916;2024-03-17T12:05:24;4.90;;;1.70;;
76752;SDS011;65687;51.308;16.916;2024-03-17T12:10:29;7.40;;;1.90;;
76752;SDS011;65687;51.308;16.916;2024-03-17T12:16:09;6.80;;;2.00;;
76752;SDS011;65687;51.308;16.916;2024-03-17T12:21:12;6.50;;;1.40;;
76752;SDS011;65687;51.308;16.916;2024-03-17T12:31:18;4.20;;;1.70;;
76752;SDS011;65687;51.308;16.916;2024-03-17T12:36:20;5.50;;;1.60;;
76752;SDS011;65687;51.308;16.916;2024-03-17T12:41:22;3.40;;;1.70;;
76752;SDS011;65687;51.308;16.916;2024-03-17T12:46:24;7.00;;;2.00;;
76752;SDS011;65687;51.308;16.916;2024-03-17T12:51:26;6.30;;;1.70;;
76752;SDS011;65687;51.308;16.916;2024-03-17T12:56:29;3.00;;;1.70;;
76752;SDS011;65687;51.308;16.916;2024-03-17T13:01:49;5.20;;;1.40;;
76752;SDS011;65687;51.308;16.916;2024-03-17T13:11:55;4.20;;;2.10;;
76752;SDS011;65687;51.308;16.916;2024-03-17T13:16:57;4.20;;;1.70;;
76752;SDS011;65687;51.308;16.916;2024-03-17T13:21:59;5.50;;;1.60;;
76752;SDS011;65687;51.308;16.916;2024-03-17T13:27:00;5.00;;;1.80;;
76752;SDS011;65687;51.308;16.916;2024-03-17T13:32:06;4.60;;;1.60;;
76752;SDS011;65687;51.308;16.916;2024-03-17T13:42:10;4.60;;;2.10;;
76752;SDS011;65687;51.308;16.916;2024-03-17T13:47:13;3.80;;;1.50;;
76752;SDS011;65687;51.308;16.916;2024-03-17T13:52:16;3.90;;;1.50;;
76752;SDS011;65687;51.308;16.916;2024-03-17T13:57:17;2.80;;;1.40;;
76752;SDS011;65687;51.308;16.916;2024-03-17T14:02:19;2.80;;;1.60;;
76752;SDS011;65687;51.308;16.916;2024-03-17T14:07:20;2.50;;;1.50;;
76752;SDS011;65687;51.308;16.916;2024-03-17T14:12:22;4.30;;;1.40;;
76752;SDS011;65687;51.308;16.916;2024-03-17T14:17:23;2.70;;;1.80;;
76752;SDS011;65687;51.308;16.916;2024-03-17T14:22:25;3.60;;;1.60;;
76752;SDS011;65687;51.308;16.916;2024-03-17T14:27:27;4.10;;;1.70;;
76752;SDS011;65687;51.308;16.916;2024-03-17T14:32:28;4.50;;;1.60;;
76752;SDS011;65687;51.308;16.916;2024-03-17T14:37:30;4.10;;;1.90;;
76752;SDS011;65687;51.308;16.916;2024-03-17T14:42:32;5.20;;;1.90;;
76752;SDS011;65687;51.308;16.916;2024-03-17T14:47:33;5.30;;;2.40;;
76752;SDS011;65687;51.308;16.916;2024-03-17T14:52:35;3.00;;;1.70;;
76752;SDS011;65687;51.308;16.916;2024-03-17T14:57:38;2.50;;;1.70;;
76752;SDS011;65687;51.308;16.916;2024-03-17T15:02:40;5.00;;;1.90;;
76752;SDS011;65687;51.308;16.916;2024-03-17T15:07:42;6.00;;;1.80;;
76752;SDS011;65687;51.308;16.916;2024-03-17T15:12:44;3.80;;;2.00;;
76752;SDS011;65687;51.308;16.916;2024-03-17T15:17:46;3.70;;;2.00;;
76752;SDS011;65687;51.308;16.916;2024-03-17T15:22:50;5.40;;;2.10;;
76752;SDS011;65687;51.308;16.916;2024-03-17T15:27:52;6.00;;;1.80;;
76752;SDS011;65687;51.308;16.916;2024-03-17T15:32:54;4.30;;;2.10;;
76752;SDS011;65687;51.308;16.916;2024-03-17T15:37:56;5.10;;;2.50;;
76752;SDS011;65687;51.308;16.916;2024-03-17T15:42:58;5.10;;;2.30;;
76752;SDS011;65687;51.308;16.916;2024-03-17T15:48:00;4.30;;;1.90;;
76752;SDS011;65687;51.308;16.916;2024-03-17T15:53:01;5.50;;;2.30;;
76752;SDS011;65687;51.308;16.916;2024-03-17T15:58:04;5.50;;;2.20;;
76752;SDS011;65687;51.308;16.916;2024-03-17T16:03:06;3.70;;;1.90;;
76752;SDS011;65687;51.308;16.916;2024-03-17T16:08:08;6.20;;;2.40;;
76752;SDS011;65687;51.308;16.916;2024-03-17T16:13:14;4.20;;;2.20;;
76752;SDS011;65687;51.308;16.916;2024-03-17T16:18:17;4.40;;;2.60;;
76752;SDS011;65687;51.308;16.916;2024-03-17T16:23:20;5.60;;;2.70;;
76752;SDS011;65687;51.308;16.916;2024-03-17T16:28:22;4.60;;;2.90;;
76752;SDS011;65687;51.308;16.916;2024-03-17T16:33:24;6.30;;;2.60;;
76752;SDS011;65687;51.308;16.916;2024-03-17T16:38:29;5.10;;;2.50;;
76752;SDS011;65687;51.308;16.916;2024-03-17T16:49:07;6.30;;;3.60;;
76752;SDS011;65687;51.308;16.916;2024-03-17T16:54:11;5.90;;;2.80;;
76752;SDS011;65687;51.308;16.916;2024-03-17T16:59:14;5.40;;;2.70;;
76752;SDS011;65687;51.308;16.916;2024-03-17T17:09:18;5.30;;;2.70;;
76752;SDS011;65687;51.308;16.916;2024-03-17T17:14:20;4.20;;;2.40;;
76752;SDS011;65687;51.308;16.916;2024-03-17T17:19:26;4.50;;;2.80;;
76752;SDS011;65687;51.308;16.916;2024-03-17T17:24:29;6.50;;;3.30;;
76752;SDS011;65687;51.308;16.916;2024-03-17T17:29:33;4.10;;;2.30;;
76752;SDS011;65687;51.308;16.916;2024-03-17T17:34:36;5.50;;;2.90;;
76752;SDS011;65687;51.308;16.916;2024-03-17T17:39:39;7.80;;;3.40;;
76752;SDS011;65687;51.308;16.916;2024-03-17T17:44:40;5.90;;;2.50;;
76752;SDS011;65687;51.308;16.916;2024-03-17T17:49:42;5.90;;;3.30;;
76752;SDS011;65687;51.308;16.916;2024-03-17T17:54:45;6.70;;;3.50;;
76752;SDS011;65687;51.308;16.916;2024-03-17T17:59:46;5.60;;;3.10;;
76752;SDS011;65687;51.308;16.916;2024-03-17T18:04:48;6.10;;;2.90;;
76752;SDS011;65687;51.308;16.916;2024-03-17T18:09:50;4.60;;;2.80;;
76752;SDS011;65687;51.308;16.916;2024-03-17T18:14:51;6.30;;;3.10;;
76752;SDS011;65687;51.308;16.916;2024-03-17T18:19:54;5.70;;;3.30;;
76752;SDS011;65687;51.308;16.916;2024-03-17T18:24:56;4.60;;;2.50;;
76752;SDS011;65687;51.308;16.916;2024-03-17T18:30:00;5.50;;;2.90;;
76752;SDS011;65687;51.308;16.916;2024-03-17T18:35:01;5.70;;;2.50;;
76752;SDS011;65687;51.308;16.916;2024-03-17T18:40:04;6.10;;;2.80;;
76752;SDS011;65687;51.308;16.916;2024-03-17T18:45:06;8.70;;;4.40;;
76752;SDS011;65687;51.308;16.916;2024-03-17T18:50:08;11.70;;;5.30;;
76752;SDS011;65687;51.308;16.916;2024-03-17T18:55:13;8.90;;;4.40;;
76752;SDS011;65687;51.308;16.916;2024-03-17T19:00:15;11.10;;;5.30;;
76752;SDS011;65687;51.308;16.916;2024-03-17T19:05:19;8.60;;;3.70;;
76752;SDS011;65687;51.308;16.916;2024-03-17T19:10:21;7.50;;;3.70;;
76752;SDS011;65687;51.308;16.916;2024-03-17T19:15:24;7.20;;;3.40;;
76752;SDS011;65687;51.308;16.916;2024-03-17T19:20:26;6.10;;;3.20;;
76752;SDS011;65687;51.308;16.916;2024-03-17T19:25:28;5.40;;;2.70;;
76752;SDS011;65687;51.308;16.916;2024-03-17T19:30:30;5.80;;;2.60;;
76752;SDS011;65687;51.308;16.916;2024-03-17T19:35:32;5.70;;;3.00;;
76752;SDS011;65687;51.308;16.916;2024-03-17T19:45:36;4.80;;;2.30;;
76752;SDS011;65687;51.308;16.916;2024-03-17T19:50:38;5.10;;;2.90;;
76752;SDS011;65687;51.308;16.916;2024-03-17T19:55:45;5.60;;;3.00;;
76752;SDS011;65687;51.308;16.916;2024-03-17T20:00:47;6.90;;;3.60;;
76752;SDS011;65687;51.308;16.916;2024-03-17T20:05:49;6.60;;;3.20;;
76752;SDS011;65687;51.308;16.916;2024-03-17T20:10:53;6.30;;;3.50;;
76752;SDS011;65687;51.308;16.916;2024-03-17T20:15:56;8.40;;;3.50;;
76752;SDS011;65687;51.308;16.916;2024-03-17T20:20:58;8.60;;;3.50;;
76752;SDS011;65687;51.308;16.916;2024-03-17T20:25:59;5.20;;;2.80;;
76752;SDS011;65687;51.308;16.916;2024-03-17T20:31:01;7.10;;;3.70;;
76752;SDS011;65687;51.308;16.916;2024-03-17T20:36:02;7.30;;;3.50;;
76752;SDS011;65687;51.308;16.916;2024-03-17T20:41:05;8.00;;;3.50;;
76752;SDS011;65687;51.308;16.916;2024-03-17T20:46:07;7.70;;;3.70;;
76752;SDS011;65687;51.308;16.916;2024-03-17T20:51:14;5.40;;;3.40;;
76752;SDS011;65687;51.308;16.916;2024-03-17T20:56:17;6.70;;;3.80;;
76752;SDS011;65687;51.308;16.916;2024-03-17T21:01:19;5.90;;;3.30;;
76752;SDS011;65687;51.308;16.916;2024-03-17T21:06:21;8.40;;;3.30;;
76752;SDS011;65687;51.308;16.916;2024-03-17T21:11:26;5.70;;;2.90;;
76752;SDS011;65687;51.308;16.916;2024-03-17T21:16:28;6.50;;;3.10;;
76752;SDS011;65687;51.308;16.916;2024-03-17T21:21:30;7.20;;;3.80;;
76752;SDS011;65687;51.308;16.916;2024-03-17T21:26:31;6.70;;;3.30;;
76752;SDS011;65687;51.308;16.916;2024-03-17T21:31:33;5.80;;;3.30;;
76752;SDS011;65687;51.308;16.916;2024-03-17T21:36:35;4.50;;;2.20;;
76752;SDS011;65687;51.308;16.916;2024-03-17T21:41:36;6.90;;;2.90;;
76752;SDS011;65687;51.308;16.916;2024-03-17T21:46:38;4.60;;;2.80;;
76752;SDS011;65687;51.308;16.916;2024-03-17T21:51:40;4.00;;;2.50;;
76752;SDS011;65687;51.308;16.916;2024-03-17T21:56:41;5.40;;;2.80;;
76752;SDS011;65687;51.308;16.916;2024-03-17T22:01:43;5.80;;;2.90;;
76752;SDS011;65687;51.308;16.916;2024-03-17T22:06:45;4.80;;;2.90;;
76752;SDS011;65687;51.308;16.916;2024-03-17T22:11:47;4.90;;;2.60;;
76752;SDS011;65687;51.308;16.916;2024-03-17T22:16:48;6.00;;;3.10;;
76752;SDS011;65687;51.308;16.916;2024-03-17T22:21:50;4.90;;;2.70;;
76752;SDS011;65687;51.308;16.916;2024-03-17T22:26:51;4.70;;;2.40;;
76752;SDS011;65687;51.308;16.916;2024-03-17T22:31:53;4.20;;;2.50;;
76752;SDS011;65687;51.308;16.916;2024-03-17T22:36:54;4.30;;;2.20;;
76752;SDS011;65687;51.308;16.916;2024-03-17T22:41:56;3.50;;;2.00;;
76752;SDS011;65687;51.308;16.916;2024-03-17T22:46:57;3.70;;;2.20;;
76752;SDS011;65687;51.308;16.916;2024-03-17T22:52:02;4.10;;;1.90;;
76752;SDS011;65687;51.308;16.916;2024-03-17T22:57:03;3.90;;;1.70;;
76752;SDS011;65687;51.308;16.916;2024-03-17T23:02:05;2.50;;;1.50;;
76752;SDS011;65687;51.308;16.916;2024-03-17T23:07:07;4.10;;;1.90;;
76752;SDS011;65687;51.308;16.916;2024-03-17T23:12:08;2.70;;;2.00;;
76752;SDS011;65687;51.308;16.916;2024-03-17T23:17:11;2.50;;;1.70;;
76752;SDS011;65687;51.308;16.916;2024-03-17T23:22:13;4.70;;;2.40;;
76752;SDS011;65687;51.308;16.916;2024-03-17T23:27:14;4.70;;;2.40;;
76752;SDS011;65687;51.308;16.916;2024-03-17T23:32:16;3.70;;;2.20;;
76752;SDS011;65687;51.308;16.916;2024-03-17T23:37:18;4.00;;;2.20;;
76752;SDS011;65687;51.308;16.916;2024-03-17T23:42:19;4.20;;;2.20;;
76752;SDS011;65687;51.308;16.916;2024-03-17T23:47:22;3.40;;;1.90;;
76752;SDS011;65687;51.308;16.916;2024-03-17T23:52:24;2.50;;;1.70;;
76752;SDS011;65687;51.308;16.916;2024-03-17T23:57:27;3.20;;;2.10;;
